Terminal Aerodrome Forecast
Issued by NWS

Home | Current Version | Previous Version | Text Only | Print | Product List | Glossary On
Versions: 1 2 3 4 5 6 7 8 9 10 11 12
000
FTUS42 KTBW 032330
TAFRSW
TAF
KRSW 032330Z 0400/0424 15005KT P6SM VCTS SCT050CB BKN100
      TEMPO 0400/0401 5SM -TSRA BKN050CB
     FM040300 VRB03KT P6SM SCT040 BKN100 OVC250
     FM040600 00000KT P6SM FEW040 SCT100 SCT250
     FM041500 14006KT P6SM SCT035 SCT250
     FM041800 21005KT P6SM VCTS SCT050CB BKN250
     FM042100 28008KT P6SM VCTS BKN050CB OVC100=

USA.gov is the U.S. government's official web portal to all federal, state and local government web resources and services.